sensor_id;sensor_type;location;lat;lon;timestamp;P1;durP1;ratioP1;P2;durP2;ratioP2
35290;SDS011;21411;50.024;19.220;2024-03-07T00:00:51;34.80;;;26.00;;
35290;SDS011;21411;50.024;19.220;2024-03-07T00:03:32;34.30;;;25.30;;
35290;SDS011;21411;50.024;19.220;2024-03-07T00:05:59;36.30;;;25.80;;
35290;SDS011;21411;50.024;19.220;2024-03-07T00:08:26;29.30;;;22.70;;
35290;SDS011;21411;50.024;19.220;2024-03-07T00:10:53;27.10;;;20.20;;
35290;SDS011;21411;50.024;19.220;2024-03-07T00:13:19;25.90;;;20.20;;
35290;SDS011;21411;50.024;19.220;2024-03-07T00:15:47;27.60;;;20.00;;
35290;SDS011;21411;50.024;19.220;2024-03-07T00:18:13;28.20;;;19.40;;
35290;SDS011;21411;50.024;19.220;2024-03-07T00:20:41;27.90;;;20.20;;
35290;SDS011;21411;50.024;19.220;2024-03-07T00:23:09;26.50;;;18.90;;
35290;SDS011;21411;50.024;19.220;2024-03-07T00:25:35;25.70;;;18.20;;
35290;SDS011;21411;50.024;19.220;2024-03-07T00:28:02;29.10;;;21.60;;
35290;SDS011;21411;50.024;19.220;2024-03-07T00:30:29;26.40;;;20.50;;
35290;SDS011;21411;50.024;19.220;2024-03-07T00:32:57;27.40;;;18.10;;
35290;SDS011;21411;50.024;19.220;2024-03-07T00:35:24;24.70;;;17.60;;
35290;SDS011;21411;50.024;19.220;2024-03-07T00:37:51;26.70;;;20.30;;
35290;SDS011;21411;50.024;19.220;2024-03-07T00:40:17;27.00;;;20.60;;
35290;SDS011;21411;50.024;19.220;2024-03-07T00:42:44;28.30;;;19.30;;
35290;SDS011;21411;50.024;19.220;2024-03-07T00:45:10;27.70;;;19.10;;
35290;SDS011;21411;50.024;19.220;2024-03-07T00:47:37;26.20;;;18.90;;
35290;SDS011;21411;50.024;19.220;2024-03-07T00:50:04;27.40;;;19.20;;
35290;SDS011;21411;50.024;19.220;2024-03-07T00:52:31;27.00;;;17.50;;
35290;SDS011;21411;50.024;19.220;2024-03-07T00:54:58;27.30;;;18.70;;
35290;SDS011;21411;50.024;19.220;2024-03-07T00:57:25;25.50;;;19.10;;
35290;SDS011;21411;50.024;19.220;2024-03-07T00:59:51;33.00;;;22.00;;
35290;SDS011;21411;50.024;19.220;2024-03-07T01:02:18;28.50;;;19.20;;
35290;SDS011;21411;50.024;19.220;2024-03-07T01:04:44;28.40;;;20.60;;
35290;SDS011;21411;50.024;19.220;2024-03-07T01:07:11;32.00;;;20.50;;
35290;SDS011;21411;50.024;19.220;2024-03-07T01:09:37;35.10;;;22.00;;
35290;SDS011;21411;50.024;19.220;2024-03-07T01:12:04;31.40;;;21.60;;
35290;SDS011;21411;50.024;19.220;2024-03-07T01:14:31;30.60;;;20.10;;
35290;SDS011;21411;50.024;19.220;2024-03-07T01:16:58;31.90;;;20.70;;
35290;SDS011;21411;50.024;19.220;2024-03-07T01:19:25;31.10;;;21.50;;
35290;SDS011;21411;50.024;19.220;2024-03-07T01:21:51;32.30;;;21.60;;
35290;SDS011;21411;50.024;19.220;2024-03-07T01:24:18;31.10;;;21.00;;
35290;SDS011;21411;50.024;19.220;2024-03-07T01:26:46;32.00;;;20.60;;
35290;SDS011;21411;50.024;19.220;2024-03-07T01:29:12;35.50;;;22.30;;
35290;SDS011;21411;50.024;19.220;2024-03-07T01:31:40;33.50;;;22.30;;
35290;SDS011;21411;50.024;19.220;2024-03-07T01:34:06;30.10;;;20.60;;
35290;SDS011;21411;50.024;19.220;2024-03-07T01:36:33;34.10;;;22.10;;
35290;SDS011;21411;50.024;19.220;2024-03-07T01:38:59;33.60;;;21.50;;
35290;SDS011;21411;50.024;19.220;2024-03-07T01:41:26;32.90;;;21.40;;
35290;SDS011;21411;50.024;19.220;2024-03-07T01:43:52;33.40;;;21.60;;
35290;SDS011;21411;50.024;19.220;2024-03-07T01:46:18;33.60;;;21.70;;
35290;SDS011;21411;50.024;19.220;2024-03-07T01:48:46;30.00;;;19.40;;
35290;SDS011;21411;50.024;19.220;2024-03-07T01:51:14;29.50;;;20.30;;
35290;SDS011;21411;50.024;19.220;2024-03-07T01:53:41;36.00;;;23.10;;
35290;SDS011;21411;50.024;19.220;2024-03-07T01:56:08;31.40;;;21.40;;
35290;SDS011;21411;50.024;19.220;2024-03-07T01:58:35;33.10;;;22.30;;
35290;SDS011;21411;50.024;19.220;2024-03-07T02:01:02;32.50;;;21.30;;
35290;SDS011;21411;50.024;19.220;2024-03-07T02:03:29;31.70;;;21.60;;
35290;SDS011;21411;50.024;19.220;2024-03-07T02:05:56;32.00;;;21.20;;
35290;SDS011;21411;50.024;19.220;2024-03-07T02:08:23;32.60;;;22.00;;
35290;SDS011;21411;50.024;19.220;2024-03-07T02:10:49;31.20;;;20.50;;
35290;SDS011;21411;50.024;19.220;2024-03-07T02:13:16;29.10;;;21.80;;
35290;SDS011;21411;50.024;19.220;2024-03-07T02:15:42;34.70;;;21.30;;
35290;SDS011;21411;50.024;19.220;2024-03-07T02:18:09;33.60;;;22.30;;
35290;SDS011;21411;50.024;19.220;2024-03-07T02:20:36;33.50;;;21.50;;
35290;SDS011;21411;50.024;19.220;2024-03-07T02:23:03;32.30;;;21.50;;
35290;SDS011;21411;50.024;19.220;2024-03-07T02:25:29;32.40;;;21.90;;
35290;SDS011;21411;50.024;19.220;2024-03-07T02:27:56;34.90;;;22.60;;
35290;SDS011;21411;50.024;19.220;2024-03-07T02:30:23;32.10;;;22.20;;
35290;SDS011;21411;50.024;19.220;2024-03-07T02:32:49;29.50;;;20.10;;
35290;SDS011;21411;50.024;19.220;2024-03-07T02:35:20;32.00;;;22.40;;
35290;SDS011;21411;50.024;19.220;2024-03-07T02:37:47;33.70;;;23.30;;
35290;SDS011;21411;50.024;19.220;2024-03-07T02:40:14;32.50;;;22.40;;
35290;SDS011;21411;50.024;19.220;2024-03-07T02:42:42;33.80;;;23.60;;
35290;SDS011;21411;50.024;19.220;2024-03-07T02:45:08;35.40;;;23.10;;
35290;SDS011;21411;50.024;19.220;2024-03-07T02:47:36;35.90;;;24.30;;
35290;SDS011;21411;50.024;19.220;2024-03-07T02:50:05;39.60;;;25.70;;
35290;SDS011;21411;50.024;19.220;2024-03-07T02:52:32;39.70;;;25.40;;
35290;SDS011;21411;50.024;19.220;2024-03-07T02:54:59;39.20;;;26.80;;
35290;SDS011;21411;50.024;19.220;2024-03-07T02:57:25;37.90;;;23.90;;
35290;SDS011;21411;50.024;19.220;2024-03-07T02:59:52;38.30;;;25.00;;
35290;SDS011;21411;50.024;19.220;2024-03-07T03:02:18;41.20;;;25.40;;
35290;SDS011;21411;50.024;19.220;2024-03-07T03:04:45;38.70;;;27.70;;
35290;SDS011;21411;50.024;19.220;2024-03-07T03:07:11;38.80;;;26.30;;
35290;SDS011;21411;50.024;19.220;2024-03-07T03:09:38;41.30;;;25.60;;
35290;SDS011;21411;50.024;19.220;2024-03-07T03:12:09;44.00;;;28.20;;
35290;SDS011;21411;50.024;19.220;2024-03-07T03:14:36;42.10;;;26.60;;
35290;SDS011;21411;50.024;19.220;2024-03-07T03:17:03;39.60;;;26.40;;
35290;SDS011;21411;50.024;19.220;2024-03-07T03:19:30;37.60;;;23.90;;
35290;SDS011;21411;50.024;19.220;2024-03-07T03:21:56;42.60;;;27.40;;
35290;SDS011;21411;50.024;19.220;2024-03-07T03:24:24;37.00;;;23.70;;
35290;SDS011;21411;50.024;19.220;2024-03-07T03:26:51;41.70;;;26.00;;
35290;SDS011;21411;50.024;19.220;2024-03-07T03:29:18;40.20;;;25.70;;
35290;SDS011;21411;50.024;19.220;2024-03-07T03:31:44;42.40;;;27.70;;
35290;SDS011;21411;50.024;19.220;2024-03-07T03:34:11;46.40;;;29.80;;
35290;SDS011;21411;50.024;19.220;2024-03-07T03:36:37;41.60;;;27.60;;
35290;SDS011;21411;50.024;19.220;2024-03-07T03:39:04;36.20;;;25.20;;
35290;SDS011;21411;50.024;19.220;2024-03-07T03:41:33;37.70;;;24.30;;
35290;SDS011;21411;50.024;19.220;2024-03-07T03:43:59;34.70;;;23.20;;
35290;SDS011;21411;50.024;19.220;2024-03-07T03:46:26;36.80;;;23.20;;
35290;SDS011;21411;50.024;19.220;2024-03-07T03:48:52;38.40;;;23.50;;
35290;SDS011;21411;50.024;19.220;2024-03-07T03:51:19;35.20;;;23.30;;
35290;SDS011;21411;50.024;19.220;2024-03-07T03:53:47;39.80;;;25.90;;
35290;SDS011;21411;50.024;19.220;2024-03-07T03:56:14;42.30;;;28.00;;
35290;SDS011;21411;50.024;19.220;2024-03-07T03:58:41;50.50;;;29.60;;
35290;SDS011;21411;50.024;19.220;2024-03-07T04:01:09;47.60;;;27.50;;
35290;SDS011;21411;50.024;19.220;2024-03-07T04:06:05;43.80;;;26.90;;
35290;SDS011;21411;50.024;19.220;2024-03-07T04:08:33;45.20;;;29.30;;
35290;SDS011;21411;50.024;19.220;2024-03-07T04:11:01;47.40;;;29.00;;
35290;SDS011;21411;50.024;19.220;2024-03-07T04:13:27;46.20;;;29.80;;
35290;SDS011;21411;50.024;19.220;2024-03-07T04:15:54;47.90;;;28.40;;
35290;SDS011;21411;50.024;19.220;2024-03-07T04:18:21;45.00;;;29.00;;
35290;SDS011;21411;50.024;19.220;2024-03-07T04:20:47;43.00;;;27.20;;
35290;SDS011;21411;50.024;19.220;2024-03-07T04:23:14;47.00;;;28.00;;
35290;SDS011;21411;50.024;19.220;2024-03-07T04:25:40;44.20;;;29.80;;
35290;SDS011;21411;50.024;19.220;2024-03-07T04:28:07;45.30;;;28.60;;
35290;SDS011;21411;50.024;19.220;2024-03-07T04:30:34;45.10;;;28.00;;
35290;SDS011;21411;50.024;19.220;2024-03-07T04:33:00;48.10;;;29.60;;
35290;SDS011;21411;50.024;19.220;2024-03-07T04:35:27;45.30;;;28.40;;
35290;SDS011;21411;50.024;19.220;2024-03-07T04:37:53;45.00;;;27.60;;
35290;SDS011;21411;50.024;19.220;2024-03-07T04:40:20;42.00;;;25.60;;
35290;SDS011;21411;50.024;19.220;2024-03-07T04:42:48;45.20;;;27.10;;
35290;SDS011;21411;50.024;19.220;2024-03-07T04:45:16;39.60;;;26.10;;
35290;SDS011;21411;50.024;19.220;2024-03-07T04:47:43;45.10;;;28.00;;
35290;SDS011;21411;50.024;19.220;2024-03-07T04:50:11;37.60;;;24.20;;
35290;SDS011;21411;50.024;19.220;2024-03-07T04:52:39;45.20;;;28.00;;
35290;SDS011;21411;50.024;19.220;2024-03-07T04:55:06;45.90;;;27.40;;
35290;SDS011;21411;50.024;19.220;2024-03-07T04:57:37;41.70;;;26.80;;
35290;SDS011;21411;50.024;19.220;2024-03-07T05:00:09;44.70;;;28.20;;
35290;SDS011;21411;50.024;19.220;2024-03-07T05:02:40;50.60;;;30.20;;
35290;SDS011;21411;50.024;19.220;2024-03-07T05:05:07;41.80;;;25.30;;
35290;SDS011;21411;50.024;19.220;2024-03-07T05:07:34;46.50;;;29.40;;
35290;SDS011;21411;50.024;19.220;2024-03-07T05:10:04;45.80;;;27.70;;
35290;SDS011;21411;50.024;19.220;2024-03-07T05:12:32;46.50;;;29.30;;
35290;SDS011;21411;50.024;19.220;2024-03-07T05:14:59;45.90;;;27.50;;
35290;SDS011;21411;50.024;19.220;2024-03-07T05:17:26;43.90;;;27.00;;
35290;SDS011;21411;50.024;19.220;2024-03-07T05:19:54;47.00;;;29.60;;
35290;SDS011;21411;50.024;19.220;2024-03-07T05:22:21;45.40;;;28.90;;
35290;SDS011;21411;50.024;19.220;2024-03-07T05:24:51;45.70;;;28.10;;
35290;SDS011;21411;50.024;19.220;2024-03-07T05:27:18;49.60;;;28.70;;
35290;SDS011;21411;50.024;19.220;2024-03-07T05:29:44;40.10;;;26.80;;
35290;SDS011;21411;50.024;19.220;2024-03-07T05:34:46;45.60;;;28.80;;
35290;SDS011;21411;50.024;19.220;2024-03-07T05:37:13;52.50;;;32.30;;
35290;SDS011;21411;50.024;19.220;2024-03-07T05:39:39;43.70;;;29.90;;
35290;SDS011;21411;50.024;19.220;2024-03-07T05:42:06;45.00;;;28.80;;
35290;SDS011;21411;50.024;19.220;2024-03-07T05:44:33;48.30;;;27.60;;
35290;SDS011;21411;50.024;19.220;2024-03-07T05:47:00;48.60;;;29.90;;
35290;SDS011;21411;50.024;19.220;2024-03-07T05:49:26;48.40;;;30.10;;
35290;SDS011;21411;50.024;19.220;2024-03-07T05:51:53;45.30;;;29.10;;
35290;SDS011;21411;50.024;19.220;2024-03-07T05:54:19;47.20;;;30.30;;
35290;SDS011;21411;50.024;19.220;2024-03-07T05:56:46;49.40;;;32.10;;
35290;SDS011;21411;50.024;19.220;2024-03-07T05:59:12;46.70;;;29.50;;
35290;SDS011;21411;50.024;19.220;2024-03-07T06:01:39;49.70;;;30.30;;
35290;SDS011;21411;50.024;19.220;2024-03-07T06:04:06;46.70;;;28.70;;
35290;SDS011;21411;50.024;19.220;2024-03-07T06:06:33;51.60;;;30.40;;
35290;SDS011;21411;50.024;19.220;2024-03-07T06:09:02;46.20;;;30.10;;
35290;SDS011;21411;50.024;19.220;2024-03-07T06:11:34;47.60;;;28.30;;
35290;SDS011;21411;50.024;19.220;2024-03-07T06:14:02;51.20;;;31.80;;
35290;SDS011;21411;50.024;19.220;2024-03-07T06:16:30;49.70;;;31.00;;
35290;SDS011;21411;50.024;19.220;2024-03-07T06:19:01;49.60;;;28.10;;
35290;SDS011;21411;50.024;19.220;2024-03-07T06:21:28;48.80;;;30.20;;
35290;SDS011;21411;50.024;19.220;2024-03-07T06:23:59;45.40;;;29.50;;
35290;SDS011;21411;50.024;19.220;2024-03-07T06:26:27;49.30;;;31.30;;
35290;SDS011;21411;50.024;19.220;2024-03-07T06:29:04;46.00;;;29.40;;
35290;SDS011;21411;50.024;19.220;2024-03-07T06:34:00;49.20;;;29.40;;
35290;SDS011;21411;50.024;19.220;2024-03-07T06:36:27;51.10;;;31.50;;
35290;SDS011;21411;50.024;19.220;2024-03-07T06:38:54;48.40;;;32.10;;
35290;SDS011;21411;50.024;19.220;2024-03-07T06:41:20;54.20;;;32.70;;
35290;SDS011;21411;50.024;19.220;2024-03-07T06:43:47;56.10;;;33.80;;
35290;SDS011;21411;50.024;19.220;2024-03-07T06:46:16;53.20;;;32.90;;
35290;SDS011;21411;50.024;19.220;2024-03-07T06:48:43;51.20;;;32.30;;
35290;SDS011;21411;50.024;19.220;2024-03-07T06:51:10;59.00;;;32.90;;
35290;SDS011;21411;50.024;19.220;2024-03-07T06:53:37;49.30;;;30.80;;
35290;SDS011;21411;50.024;19.220;2024-03-07T06:56:03;49.30;;;29.80;;
35290;SDS011;21411;50.024;19.220;2024-03-07T06:58:31;45.10;;;27.50;;
35290;SDS011;21411;50.024;19.220;2024-03-07T07:00:57;50.20;;;31.20;;
35290;SDS011;21411;50.024;19.220;2024-03-07T07:03:25;47.80;;;29.70;;
35290;SDS011;21411;50.024;19.220;2024-03-07T07:05:52;47.90;;;31.00;;
35290;SDS011;21411;50.024;19.220;2024-03-07T07:08:18;51.50;;;31.30;;
35290;SDS011;21411;50.024;19.220;2024-03-07T07:10:45;54.50;;;32.70;;
35290;SDS011;21411;50.024;19.220;2024-03-07T07:13:11;50.50;;;32.20;;
35290;SDS011;21411;50.024;19.220;2024-03-07T07:15:39;54.50;;;33.50;;
35290;SDS011;21411;50.024;19.220;2024-03-07T07:18:06;56.20;;;34.50;;
35290;SDS011;21411;50.024;19.220;2024-03-07T07:20:33;50.10;;;31.70;;
35290;SDS011;21411;50.024;19.220;2024-03-07T07:23:03;55.70;;;35.50;;
35290;SDS011;21411;50.024;19.220;2024-03-07T07:25:30;50.70;;;31.20;;
35290;SDS011;21411;50.024;19.220;2024-03-07T07:27:57;47.30;;;30.30;;
35290;SDS011;21411;50.024;19.220;2024-03-07T07:30:23;45.00;;;28.20;;
35290;SDS011;21411;50.024;19.220;2024-03-07T07:32:52;46.80;;;28.30;;
35290;SDS011;21411;50.024;19.220;2024-03-07T07:35:19;39.40;;;26.00;;
35290;SDS011;21411;50.024;19.220;2024-03-07T07:37:47;37.90;;;24.10;;
35290;SDS011;21411;50.024;19.220;2024-03-07T07:40:15;37.10;;;25.10;;
35290;SDS011;21411;50.024;19.220;2024-03-07T07:42:45;40.20;;;26.70;;
35290;SDS011;21411;50.024;19.220;2024-03-07T07:45:13;38.70;;;24.50;;
35290;SDS011;21411;50.024;19.220;2024-03-07T07:47:41;40.90;;;26.10;;
35290;SDS011;21411;50.024;19.220;2024-03-07T07:50:10;40.70;;;25.10;;
35290;SDS011;21411;50.024;19.220;2024-03-07T07:52:40;37.80;;;26.80;;
35290;SDS011;21411;50.024;19.220;2024-03-07T07:55:08;39.00;;;27.00;;
35290;SDS011;21411;50.024;19.220;2024-03-07T07:57:41;41.90;;;26.40;;
35290;SDS011;21411;50.024;19.220;2024-03-07T08:00:15;38.60;;;26.40;;
35290;SDS011;21411;50.024;19.220;2024-03-07T08:02:50;39.50;;;28.30;;
35290;SDS011;21411;50.024;19.220;2024-03-07T08:05:32;47.30;;;29.90;;
35290;SDS011;21411;50.024;19.220;2024-03-07T08:08:02;43.60;;;30.90;;
35290;SDS011;21411;50.024;19.220;2024-03-07T08:10:34;44.80;;;30.50;;
35290;SDS011;21411;50.024;19.220;2024-03-07T08:13:01;40.20;;;25.80;;
35290;SDS011;21411;50.024;19.220;2024-03-07T08:15:30;40.40;;;26.60;;
35290;SDS011;21411;50.024;19.220;2024-03-07T08:17:57;38.00;;;26.30;;
35290;SDS011;21411;50.024;19.220;2024-03-07T08:20:25;45.20;;;29.10;;
35290;SDS011;21411;50.024;19.220;2024-03-07T08:22:53;43.00;;;28.20;;
35290;SDS011;21411;50.024;19.220;2024-03-07T08:25:22;38.90;;;25.20;;
35290;SDS011;21411;50.024;19.220;2024-03-07T08:27:51;45.20;;;28.30;;
35290;SDS011;21411;50.024;19.220;2024-03-07T08:30:19;44.90;;;29.40;;
35290;SDS011;21411;50.024;19.220;2024-03-07T08:32:50;42.30;;;27.20;;
35290;SDS011;21411;50.024;19.220;2024-03-07T08:35:18;47.50;;;31.10;;
35290;SDS011;21411;50.024;19.220;2024-03-07T08:37:46;40.20;;;26.80;;
35290;SDS011;21411;50.024;19.220;2024-03-07T08:40:19;42.90;;;28.40;;
35290;SDS011;21411;50.024;19.220;2024-03-07T08:42:47;44.30;;;28.70;;
35290;SDS011;21411;50.024;19.220;2024-03-07T08:45:20;49.10;;;33.10;;
35290;SDS011;21411;50.024;19.220;2024-03-07T08:47:46;42.50;;;28.50;;
35290;SDS011;21411;50.024;19.220;2024-03-07T08:50:15;42.40;;;29.50;;
35290;SDS011;21411;50.024;19.220;2024-03-07T08:52:44;49.00;;;31.20;;
35290;SDS011;21411;50.024;19.220;2024-03-07T08:55:14;40.80;;;27.50;;
35290;SDS011;21411;50.024;19.220;2024-03-07T08:57:43;44.10;;;27.20;;
35290;SDS011;21411;50.024;19.220;2024-03-07T09:00:12;47.70;;;27.30;;
35290;SDS011;21411;50.024;19.220;2024-03-07T09:02:49;39.30;;;26.10;;
35290;SDS011;21411;50.024;19.220;2024-03-07T09:05:18;38.80;;;26.00;;
35290;SDS011;21411;50.024;19.220;2024-03-07T09:07:46;41.40;;;25.80;;
35290;SDS011;21411;50.024;19.220;2024-03-07T09:10:13;43.70;;;28.50;;
35290;SDS011;21411;50.024;19.220;2024-03-07T09:12:43;42.50;;;28.40;;
35290;SDS011;21411;50.024;19.220;2024-03-07T09:15:11;37.90;;;26.00;;
35290;SDS011;21411;50.024;19.220;2024-03-07T09:17:38;37.80;;;27.10;;
35290;SDS011;21411;50.024;19.220;2024-03-07T09:20:05;41.30;;;27.40;;
35290;SDS011;21411;50.024;19.220;2024-03-07T09:22:33;40.10;;;26.90;;
35290;SDS011;21411;50.024;19.220;2024-03-07T09:25:00;39.00;;;26.90;;
35290;SDS011;21411;50.024;19.220;2024-03-07T09:27:27;43.80;;;29.40;;
35290;SDS011;21411;50.024;19.220;2024-03-07T09:29:56;43.70;;;28.30;;
35290;SDS011;21411;50.024;19.220;2024-03-07T09:32:24;42.20;;;26.90;;
35290;SDS011;21411;50.024;19.220;2024-03-07T09:34:50;41.70;;;27.50;;
35290;SDS011;21411;50.024;19.220;2024-03-07T09:37:17;37.80;;;27.10;;
35290;SDS011;21411;50.024;19.220;2024-03-07T09:39:45;42.20;;;27.40;;
35290;SDS011;21411;50.024;19.220;2024-03-07T09:42:12;39.80;;;27.20;;
35290;SDS011;21411;50.024;19.220;2024-03-07T09:44:44;37.50;;;26.00;;
35290;SDS011;21411;50.024;19.220;2024-03-07T09:47:13;39.40;;;24.40;;
35290;SDS011;21411;50.024;19.220;2024-03-07T09:49:40;40.20;;;26.10;;
35290;SDS011;21411;50.024;19.220;2024-03-07T09:52:07;34.00;;;24.10;;
35290;SDS011;21411;50.024;19.220;2024-03-07T09:54:38;38.70;;;25.30;;
35290;SDS011;21411;50.024;19.220;2024-03-07T09:57:06;40.40;;;26.20;;
35290;SDS011;21411;50.024;19.220;2024-03-07T09:59:34;39.00;;;25.90;;
35290;SDS011;21411;50.024;19.220;2024-03-07T10:02:02;39.30;;;27.50;;
35290;SDS011;21411;50.024;19.220;2024-03-07T10:04:36;38.60;;;25.10;;
35290;SDS011;21411;50.024;19.220;2024-03-07T10:07:07;38.70;;;26.20;;
35290;SDS011;21411;50.024;19.220;2024-03-07T10:09:37;44.60;;;28.60;;
35290;SDS011;21411;50.024;19.220;2024-03-07T10:12:06;44.90;;;29.90;;
35290;SDS011;21411;50.024;19.220;2024-03-07T10:14:35;39.30;;;27.90;;
35290;SDS011;21411;50.024;19.220;2024-03-07T10:17:03;41.00;;;26.90;;
35290;SDS011;21411;50.024;19.220;2024-03-07T10:19:30;42.90;;;28.30;;
35290;SDS011;21411;50.024;19.220;2024-03-07T10:21:56;43.60;;;28.60;;
35290;SDS011;21411;50.024;19.220;2024-03-07T10:24:27;47.60;;;30.80;;
35290;SDS011;21411;50.024;19.220;2024-03-07T10:26:54;46.90;;;28.70;;
35290;SDS011;21411;50.024;19.220;2024-03-07T10:29:24;44.40;;;30.20;;
35290;SDS011;21411;50.024;19.220;2024-03-07T10:31:51;51.30;;;32.30;;
35290;SDS011;21411;50.024;19.220;2024-03-07T10:34:18;46.80;;;30.40;;
35290;SDS011;21411;50.024;19.220;2024-03-07T10:36:45;46.50;;;32.30;;
35290;SDS011;21411;50.024;19.220;2024-03-07T10:39:11;49.40;;;29.70;;
35290;SDS011;21411;50.024;19.220;2024-03-07T10:41:47;46.60;;;29.10;;
35290;SDS011;21411;50.024;19.220;2024-03-07T10:44:18;47.00;;;27.80;;
35290;SDS011;21411;50.024;19.220;2024-03-07T10:46:52;46.00;;;29.00;;
35290;SDS011;21411;50.024;19.220;2024-03-07T10:49:20;52.30;;;32.50;;
35290;SDS011;21411;50.024;19.220;2024-03-07T10:52:03;48.70;;;31.70;;
35290;SDS011;21411;50.024;19.220;2024-03-07T11:00:28;52.40;;;30.10;;
35290;SDS011;21411;50.024;19.220;2024-03-07T11:03:02;51.50;;;30.80;;
35290;SDS011;21411;50.024;19.220;2024-03-07T11:05:38;49.60;;;29.50;;
35290;SDS011;21411;50.024;19.220;2024-03-07T11:08:05;54.70;;;34.90;;
35290;SDS011;21411;50.024;19.220;2024-03-07T11:10:37;49.80;;;31.50;;
35290;SDS011;21411;50.024;19.220;2024-03-07T11:13:08;55.30;;;31.20;;
35290;SDS011;21411;50.024;19.220;2024-03-07T11:15:40;53.30;;;33.10;;
35290;SDS011;21411;50.024;19.220;2024-03-07T11:18:09;50.80;;;30.70;;
35290;SDS011;21411;50.024;19.220;2024-03-07T11:20:39;48.70;;;30.90;;
35290;SDS011;21411;50.024;19.220;2024-03-07T11:25:55;51.40;;;31.10;;
35290;SDS011;21411;50.024;19.220;2024-03-07T11:28:29;50.30;;;34.00;;
35290;SDS011;21411;50.024;19.220;2024-03-07T11:31:07;50.00;;;31.50;;
35290;SDS011;21411;50.024;19.220;2024-03-07T11:33:38;52.40;;;30.40;;
35290;SDS011;21411;50.024;19.220;2024-03-07T11:36:10;42.10;;;28.20;;
35290;SDS011;21411;50.024;19.220;2024-03-07T11:38:49;47.60;;;30.70;;
35290;SDS011;21411;50.024;19.220;2024-03-07T11:41:18;47.60;;;30.90;;
35290;SDS011;21411;50.024;19.220;2024-03-07T11:43:46;49.60;;;29.50;;
35290;SDS011;21411;50.024;19.220;2024-03-07T11:46:12;47.50;;;30.60;;
35290;SDS011;21411;50.024;19.220;2024-03-07T11:48:42;51.00;;;31.30;;
35290;SDS011;21411;50.024;19.220;2024-03-07T11:51:12;49.70;;;30.90;;
35290;SDS011;21411;50.024;19.220;2024-03-07T11:53:39;50.10;;;30.40;;
35290;SDS011;21411;50.024;19.220;2024-03-07T11:56:07;45.00;;;30.40;;
35290;SDS011;21411;50.024;19.220;2024-03-07T11:58:39;44.90;;;29.40;;
35290;SDS011;21411;50.024;19.220;2024-03-07T12:01:08;50.40;;;29.10;;
35290;SDS011;21411;50.024;19.220;2024-03-07T12:03:39;41.60;;;27.20;;
35290;SDS011;21411;50.024;19.220;2024-03-07T12:06:07;44.40;;;29.50;;
35290;SDS011;21411;50.024;19.220;2024-03-07T12:08:38;42.60;;;29.10;;
35290;SDS011;21411;50.024;19.220;2024-03-07T12:11:05;41.90;;;28.50;;
35290;SDS011;21411;50.024;19.220;2024-03-07T12:13:31;43.40;;;27.70;;
35290;SDS011;21411;50.024;19.220;2024-03-07T12:15:58;43.80;;;29.80;;
35290;SDS011;21411;50.024;19.220;2024-03-07T12:18:25;46.80;;;29.70;;
35290;SDS011;21411;50.024;19.220;2024-03-07T12:20:53;47.90;;;29.10;;
35290;SDS011;21411;50.024;19.220;2024-03-07T12:23:24;48.70;;;30.20;;
35290;SDS011;21411;50.024;19.220;2024-03-07T12:26:01;42.00;;;28.70;;
35290;SDS011;21411;50.024;19.220;2024-03-07T12:28:28;41.50;;;29.10;;
35290;SDS011;21411;50.024;19.220;2024-03-07T12:30:59;42.70;;;28.70;;
35290;SDS011;21411;50.024;19.220;2024-03-07T12:33:30;43.60;;;28.00;;
35290;SDS011;21411;50.024;19.220;2024-03-07T12:36:01;42.40;;;27.50;;
35290;SDS011;21411;50.024;19.220;2024-03-07T12:38:38;44.50;;;27.90;;
35290;SDS011;21411;50.024;19.220;2024-03-07T12:41:07;42.30;;;28.20;;
35290;SDS011;21411;50.024;19.220;2024-03-07T12:43:41;45.70;;;29.50;;
35290;SDS011;21411;50.024;19.220;2024-03-07T12:46:10;45.00;;;31.30;;
35290;SDS011;21411;50.024;19.220;2024-03-07T12:48:41;46.90;;;30.90;;
35290;SDS011;21411;50.024;19.220;2024-03-07T12:51:08;42.90;;;29.80;;
35290;SDS011;21411;50.024;19.220;2024-03-07T12:53:35;50.50;;;31.70;;
35290;SDS011;21411;50.024;19.220;2024-03-07T12:56:03;47.10;;;32.00;;
35290;SDS011;21411;50.024;19.220;2024-03-07T12:58:30;45.00;;;29.80;;
35290;SDS011;21411;50.024;19.220;2024-03-07T13:00:57;45.60;;;29.90;;
35290;SDS011;21411;50.024;19.220;2024-03-07T13:03:24;44.70;;;30.90;;
35290;SDS011;21411;50.024;19.220;2024-03-07T13:05:56;46.40;;;31.60;;
35290;SDS011;21411;50.024;19.220;2024-03-07T13:08:27;42.70;;;29.30;;
35290;SDS011;21411;50.024;19.220;2024-03-07T13:10:56;44.80;;;31.10;;
35290;SDS011;21411;50.024;19.220;2024-03-07T13:13:25;49.20;;;33.00;;
35290;SDS011;21411;50.024;19.220;2024-03-07T13:15:51;41.70;;;30.20;;
35290;SDS011;21411;50.024;19.220;2024-03-07T13:18:20;43.10;;;30.70;;
35290;SDS011;21411;50.024;19.220;2024-03-07T13:20:47;41.40;;;29.40;;
35290;SDS011;21411;50.024;19.220;2024-03-07T13:23:14;38.30;;;29.40;;
35290;SDS011;21411;50.024;19.220;2024-03-07T13:25:40;34.70;;;26.80;;
35290;SDS011;21411;50.024;19.220;2024-03-07T13:28:13;37.40;;;28.50;;
35290;SDS011;21411;50.024;19.220;2024-03-07T13:30:43;37.50;;;26.30;;
35290;SDS011;21411;50.024;19.220;2024-03-07T13:33:10;44.00;;;29.30;;
35290;SDS011;21411;50.024;19.220;2024-03-07T13:35:40;44.70;;;31.20;;
35290;SDS011;21411;50.024;19.220;2024-03-07T13:38:07;39.40;;;29.20;;
35290;SDS011;21411;50.024;19.220;2024-03-07T13:40:34;43.10;;;29.50;;
35290;SDS011;21411;50.024;19.220;2024-03-07T13:43:05;38.20;;;28.00;;
35290;SDS011;21411;50.024;19.220;2024-03-07T13:45:33;42.90;;;29.60;;
35290;SDS011;21411;50.024;19.220;2024-03-07T13:48:05;36.10;;;26.90;;
35290;SDS011;21411;50.024;19.220;2024-03-07T13:50:33;41.60;;;29.80;;
35290;SDS011;21411;50.024;19.220;2024-03-07T13:53:01;43.50;;;29.00;;
35290;SDS011;21411;50.024;19.220;2024-03-07T13:55:41;43.20;;;27.00;;
35290;SDS011;21411;50.024;19.220;2024-03-07T14:32:46;39.40;;;27.40;;
35290;SDS011;21411;50.024;19.220;2024-03-07T14:35:22;34.80;;;24.90;;
35290;SDS011;21411;50.024;19.220;2024-03-07T14:38:06;38.30;;;26.50;;
35290;SDS011;21411;50.024;19.220;2024-03-07T14:40:50;35.00;;;24.50;;
35290;SDS011;21411;50.024;19.220;2024-03-07T14:43:19;34.70;;;24.80;;
35290;SDS011;21411;50.024;19.220;2024-03-07T14:45:46;34.10;;;24.80;;
35290;SDS011;21411;50.024;19.220;2024-03-07T14:48:13;29.80;;;22.60;;
35290;SDS011;21411;50.024;19.220;2024-03-07T14:50:44;33.00;;;23.30;;
35290;SDS011;21411;50.024;19.220;2024-03-07T14:53:12;31.00;;;23.20;;
35290;SDS011;21411;50.024;19.220;2024-03-07T14:55:43;27.20;;;21.40;;
35290;SDS011;21411;50.024;19.220;2024-03-07T14:58:09;30.40;;;22.90;;
35290;SDS011;21411;50.024;19.220;2024-03-07T15:00:37;28.90;;;21.70;;
35290;SDS011;21411;50.024;19.220;2024-03-07T15:03:07;27.10;;;21.00;;
35290;SDS011;21411;50.024;19.220;2024-03-07T15:05:37;25.80;;;20.10;;